AirNav   Air Wisconsin Up To $57,000 Bonus
 
 1223 users online  

PA99 St Lukes/Gnaden Huetten Heliport
Lehighton, Pennsylvania, USA

GOING TO LEHIGHTON?


FAA INFORMATION EFFECTIVE 05 DECEMBER 2019

Location

FAA Identifier: PA99
Lat/Long: 40-49-57.3100N 075-43-37.4900W
40-49.955167N 075-43.624833W
40.8325861,-75.7270806
(estimated)
Elevation: 600 ft. / 183 m (estimated)
Variation: 12W (1985)
Time zone: UTC -5 (UTC -4 during Daylight Saving Time)
Zip code: 18235

Heliport Operations

Heliport use: Private use. Permission required prior to landing
Activation date: 02/1989
Control tower: no
ARTCC: NEW YORK CENTER
FSS: WILLIAMSPORT FLIGHT SERVICE STATION
Attendance: UNATNDD
Segmented circle: no

Heliport Communications

WX AWOS-3PT at 22N (2.1 nm SW): 119.350 (570-386-3423)
WX AWOS-3 at HZL (15 nm NW): 119.975 (570-459-4901)
WX ASOS at ABE (17 nm SE): PHONE 610-266-3579
WX AWOS-3 at XLL (19 nm SE): 127.875 (610-231-3111)

Nearby radio navigation aids

VOR radial/distance  VOR name  Freq  Var
FJCr307/13.9ALLENTOWN VORTAC117.5010W
ETXr002/15.2EAST TEXAS VOR/DME110.2009W
LVZr194/26.5WILKES-BARRE VORTAC111.6010W
PTWr357/37.4POTTSTOWN VORTAC116.5009W

Heliport Services

Runway Information

Helipad H1

Dimensions: 65 x 65 ft. / 20 x 20 m
Surface: asphalt
Latitude: 40-49.955167N
Longitude: 075-43.624833W
Elevation: 600.0 ft.
Traffic pattern: leftleft

Heliport Ownership and Management from official FAA records

Ownership: Privately-owned
Owner: GNADEN HUETTEN MEMORIAL HOSP
211 N. 12TH ST.
LEHIGHTON, PA 18235
Phone 610-377-7034
Manager: DERYL WOLFGANG
211 N. 12TH ST.
LEHIGHTON, PA 18235
Phone 610-377-7078

Additional Remarks

A33 PARKING LOT
4 FT FENCE 38 FT N OF HELIPAD.
FOR CD CTC ALLENTOWN APCH AT 800-728-6322.

Instrument Procedures

There are no published instrument procedures at PA99.

Some nearby airports with instrument procedures:

22N - Jake Arner Memorial Airport (2 nm SW)
KHZL - Hazleton Regional Airport (15 nm NW)
KABE - Lehigh Valley International Airport (17 nm SE)
KXLL - Allentown Queen City Municipal Airport (19 nm SE)
N43 - Braden Airpark (23 nm E)
 
Loc | Ops | Rwys | IFR | FBO | Links
Com | Nav | Svcs | Stats | Notes
Area around PA99 (St Lukes/Gnaden Huetten Heliport)
 
Road maps at: MapQuest Bing Google
 
Aerial photo
No photo
 
Sectional chart

 
Airport distance calculator
Flying to St Lukes/Gnaden Huetten Heliport? Find the distance to fly.

From to PA99

Sunrise and sunset
Times for 07-Dec-2019
 Local
(UTC-5)
 Zulu
(UTC)
Morning civil twilight06:4411:44
Sunrise07:1512:15
Sunset16:3421:34
Evening civil twilight17:0522:05

Current date and time
Zulu (UTC)  08-Dec-2019 02:39:53
Local (UTC-5)  07-Dec-2019 21:39:53
 
METAR
K22N 
2nm SW 
080216Z AUTO 00000KT 10SM CLR A3048 RMK AO2
KHZL 
15nm NW 
080217Z AUTO 00000KT 10SM CLR M06/M10 A3043 RMK AO2
KABE 
17nm SE 
080151Z 00000KT 10SM CLR M01/M09 A3046 RMK AO2 SLP319 T10111094
KXLL 
19nm SE 
080215Z AUTO 00000KT 10SM CLR M02/M06 A3049 RMK AO2
TAF
KABE 
17nm SE 
071720Z 0718/0818 33005KT P6SM SCT250 FM072300 VRB02KT P6SM FEW250 FM081600 16005KT P6SM SCT250
NOTAMs
Click for the latest NOTAMs
NOTAMs are issued by the DoD/FAA and will open in a separate window not controlled by AirNav.

 

 
 

Would you like to see your business listed on this page?

 If your business provides an interesting product or service to pilots, flight crews, aircraft, or users of the St Lukes/Gnaden Huetten Heliport, you should consider listing it here.  To start the listing process, click on the button below
 
Add a business
 

Other Pages about St Lukes/Gnaden Huetten Heliport

Update a link
 
Copyright © AirNav, LLC. All rights reserved. Privacy Policy  Contact